Nakhchivan — 9HHK8 — position and weather

sailwx.info

Track history (hours):
 
Tides and Currents Weather Stations Pressure Air Temp Water Temp Dewpoint Dewpoint Depression Visibility Wind Speed Wind Dir Waves Ship Positions

Nakhchivan

Last reported at 2017-Mar-17 11:31 UTC. Time now 2017-Mar-23 20:24 UTC.
Position N 45°12' E 036°28'.

Length 139 m; draft 3.9 m.

Type: Cargo ship. MMSI: 215983000.

Date/timePositionNaut miles runAvg speedWind from/ knotsBaromVisibWave heightAir tempDewpointWater temp
2017-Mar-17 11:31N 45°12' E 036°28'7 7.7
2017-Mar-17 10:33N 45°19' E 036°31'8 7.7
2017-Mar-17 09:33N 45°23' E 036°40'6 5.2
2017-Mar-17 08:26N 45°29' E 036°38'3 3.9
2017-Mar-17 07:33N 45°30' E 036°42'  
2017-Mar-10 15:03N 45°36' E 036°48'5 9.6
2017-Mar-10 14:33N 45°32' E 036°45'9 9.5
2017-Mar-10 13:33N 45°23' E 036°41'8 8.0
2017-Mar-10 12:32N 45°19' E 036°31'8 8.0
2017-Mar-10 11:33N 45°11' E 036°29'  
Track history (hours):
 
Tides and Currents Weather Stations Pressure Air Temp Water Temp Dewpoint Dewpoint Depression Visibility Wind Speed Wind Dir Waves Ship Positions

Nakhchivan

Last reported at 2017-Mar-17 11:31 UTC. Time now 2017-Mar-23 20:24 UTC.
Position N 45°12' E 036°28'.

Length 139 m; draft 3.9 m.

Type: Cargo ship. MMSI: 215983000.

Date/timePositionNaut miles runAvg speedWind from/ knotsBaromVisibWave heightAir tempDewpointWater temp
2017-Mar-17 11:31N 45°12' E 036°28'7 7.7
2017-Mar-17 10:33N 45°19' E 036°31'8 7.7
2017-Mar-17 09:33N 45°23' E 036°40'6 5.2
2017-Mar-17 08:26N 45°29' E 036°38'3 3.9
2017-Mar-17 07:33N 45°30' E 036°42'  
2017-Mar-10 15:03N 45°36' E 036°48'5 9.6
2017-Mar-10 14:33N 45°32' E 036°45'9 9.5
2017-Mar-10 13:33N 45°23' E 036°41'8 8.0
2017-Mar-10 12:32N 45°19' E 036°31'8 8.0
2017-Mar-10 11:33N 45°11' E 036°29'  

Dump ship's entire track history